Victoria River Downs, Australia
Current Conditions -  °F | °C
As of 8:30 AM on Monday 24 Nov 2014 (Local Time) from YPTN Reporting Station
Scattered Clouds Scattered Clouds  
Wind Chill: 90°   Ceiling: Unl
Heat Index: 96°   Visibility: 6mi
Dew Point: 72°   Wind: 3mph
Humidity: 55%   Direction: 300°WNW
Pressure: 29.85"   Gusts: NA
Location:  16.34°S, 131.09°E
Report Text: YPTN 232330Z 30003KT 9999 FEW030 SCT350 32/22 Q1011
Loading
Personal Weather Stations






























Interactive Weather Map New forecast layout! Learn more

10-Day Weather Forecast

Advertisements
Track Severe Weather on mobile